sensor_id;sensor_type;location;lat;lon;timestamp;pressure;altitude;pressure_sealevel;temperature;humidity
39954;BME280;25631;51.516;-0.470;2023-02-02T00:00:26;102407.07;;;6.59;39.52
39954;BME280;25631;51.516;-0.470;2023-02-02T00:03:03;102407.25;;;6.62;39.42
39954;BME280;25631;51.516;-0.470;2023-02-02T00:05:44;102414.25;;;6.90;39.50
39954;BME280;25631;51.516;-0.470;2023-02-02T00:08:21;102417.63;;;6.80;39.60
39954;BME280;25631;51.516;-0.470;2023-02-02T00:10:58;102413.77;;;6.60;39.81
39954;BME280;25631;51.516;-0.470;2023-02-02T00:13:34;102412.61;;;6.75;39.65
39954;BME280;25631;51.516;-0.470;2023-02-02T00:16:45;102411.90;;;6.79;39.59
39954;BME280;25631;51.516;-0.470;2023-02-02T00:19:23;102414.47;;;6.59;39.52
39954;BME280;25631;51.516;-0.470;2023-02-02T00:22:00;102416.51;;;6.50;39.36
39954;BME280;25631;51.516;-0.470;2023-02-02T00:24:37;102410.08;;;6.77;39.44
39954;BME280;25631;51.516;-0.470;2023-02-02T00:27:13;102407.52;;;6.92;39.39
39954;BME280;25631;51.516;-0.470;2023-02-02T00:29:49;102401.48;;;6.97;39.44
39954;BME280;25631;51.516;-0.470;2023-02-02T00:32:26;102403.63;;;6.96;39.33
39954;BME280;25631;51.516;-0.470;2023-02-02T00:35:03;102402.94;;;6.78;39.26
39954;BME280;25631;51.516;-0.470;2023-02-02T00:37:39;102402.16;;;6.80;39.22
39954;BME280;25631;51.516;-0.470;2023-02-02T00:40:17;102404.28;;;6.94;39.03
39954;BME280;25631;51.516;-0.470;2023-02-02T00:42:53;102406.28;;;7.07;39.00
39954;BME280;25631;51.516;-0.470;2023-02-02T00:45:30;102404.89;;;7.03;38.87
39954;BME280;25631;51.516;-0.470;2023-02-02T00:48:07;102404.06;;;7.15;38.74
39954;BME280;25631;51.516;-0.470;2023-02-02T00:50:44;102400.10;;;6.87;38.81
39954;BME280;25631;51.516;-0.470;2023-02-02T00:53:20;102399.00;;;6.92;38.81
39954;BME280;25631;51.516;-0.470;2023-02-02T00:55:57;102394.82;;;6.96;38.82
39954;BME280;25631;51.516;-0.470;2023-02-02T00:58:33;102395.84;;;6.83;38.89
39954;BME280;25631;51.516;-0.470;2023-02-02T01:01:14;102394.10;;;7.01;38.90
39954;BME280;25631;51.516;-0.470;2023-02-02T01:03:51;102396.83;;;7.19;38.81
39954;BME280;25631;51.516;-0.470;2023-02-02T01:06:27;102385.35;;;6.72;38.76
39954;BME280;25631;51.516;-0.470;2023-02-02T01:09:04;102383.88;;;6.87;38.73
39954;BME280;25631;51.516;-0.470;2023-02-02T01:11:41;102385.49;;;6.85;38.69
39954;BME280;25631;51.516;-0.470;2023-02-02T01:14:18;102383.42;;;7.19;38.68
39954;BME280;25631;51.516;-0.470;2023-02-02T01:16:54;102385.64;;;6.93;38.81
39954;BME280;25631;51.516;-0.470;2023-02-02T01:19:31;102386.92;;;6.87;38.88
39954;BME280;25631;51.516;-0.470;2023-02-02T01:22:13;102389.97;;;7.06;38.77
39954;BME280;25631;51.516;-0.470;2023-02-02T01:24:49;102391.66;;;7.20;38.77
39954;BME280;25631;51.516;-0.470;2023-02-02T01:27:26;102389.82;;;6.81;38.86
39954;BME280;25631;51.516;-0.470;2023-02-02T01:30:03;102396.85;;;7.09;38.84
39954;BME280;25631;51.516;-0.470;2023-02-02T01:32:40;102394.06;;;6.99;38.78
39954;BME280;25631;51.516;-0.470;2023-02-02T01:35:16;102388.27;;;6.96;38.88
39954;BME280;25631;51.516;-0.470;2023-02-02T01:37:53;102382.67;;;6.65;39.09
39954;BME280;25631;51.516;-0.470;2023-02-02T01:40:29;102375.09;;;6.47;39.29
39954;BME280;25631;51.516;-0.470;2023-02-02T01:43:19;102368.72;;;6.77;39.29
39954;BME280;25631;51.516;-0.470;2023-02-02T01:45:57;102364.18;;;6.45;39.49
39954;BME280;25631;51.516;-0.470;2023-02-02T01:48:34;102362.70;;;6.71;39.65
39954;BME280;25631;51.516;-0.470;2023-02-02T01:51:14;102361.83;;;6.65;39.76
39954;BME280;25631;51.516;-0.470;2023-02-02T01:53:54;102359.58;;;6.69;39.72
39954;BME280;25631;51.516;-0.470;2023-02-02T01:56:33;102358.24;;;6.39;39.59
39954;BME280;25631;51.516;-0.470;2023-02-02T01:59:13;102356.27;;;6.65;39.72
39954;BME280;25631;51.516;-0.470;2023-02-02T02:01:50;102355.43;;;6.13;39.78
39954;BME280;25631;51.516;-0.470;2023-02-02T02:04:29;102355.59;;;6.60;39.85
39954;BME280;25631;51.516;-0.470;2023-02-02T02:07:07;102352.30;;;6.81;39.84
39954;BME280;25631;51.516;-0.470;2023-02-02T02:09:44;102352.52;;;6.75;39.86
39954;BME280;25631;51.516;-0.470;2023-02-02T02:12:20;102352.11;;;6.39;40.09
39954;BME280;25631;51.516;-0.470;2023-02-02T02:15:02;102356.29;;;6.31;40.23
39954;BME280;25631;51.516;-0.470;2023-02-02T02:17:52;102356.65;;;6.27;40.24
39954;BME280;25631;51.516;-0.470;2023-02-02T02:20:54;102356.51;;;6.39;40.41
39954;BME280;25631;51.516;-0.470;2023-02-02T02:26:37;102373.57;;;6.49;40.36
39954;BME280;25631;51.516;-0.470;2023-02-02T02:29:50;102377.00;;;6.13;40.48
39954;BME280;25631;51.516;-0.470;2023-02-02T02:32:41;102375.69;;;6.46;40.33
39954;BME280;25631;51.516;-0.470;2023-02-02T02:35:28;102374.49;;;6.28;40.43
39954;BME280;25631;51.516;-0.470;2023-02-02T02:38:12;102374.30;;;6.32;40.36
39954;BME280;25631;51.516;-0.470;2023-02-02T02:40:55;102381.88;;;6.57;40.24
39954;BME280;25631;51.516;-0.470;2023-02-02T02:43:36;102381.68;;;6.16;40.34
39954;BME280;25631;51.516;-0.470;2023-02-02T02:46:15;102379.33;;;6.33;40.22
39954;BME280;25631;51.516;-0.470;2023-02-02T02:48:51;102386.63;;;6.44;40.20
39954;BME280;25631;51.516;-0.470;2023-02-02T02:51:46;102395.26;;;6.51;40.09
39954;BME280;25631;51.516;-0.470;2023-02-02T02:54:25;102390.62;;;6.66;40.01
39954;BME280;25631;51.516;-0.470;2023-02-02T02:57:23;102381.74;;;6.44;39.90
39954;BME280;25631;51.516;-0.470;2023-02-02T03:00:14;102383.60;;;6.37;39.89
39954;BME280;25631;51.516;-0.470;2023-02-02T03:03:12;102378.60;;;6.50;39.82
39954;BME280;25631;51.516;-0.470;2023-02-02T03:06:04;102378.78;;;6.46;39.69
39954;BME280;25631;51.516;-0.470;2023-02-02T03:08:59;102376.59;;;6.45;39.80
39954;BME280;25631;51.516;-0.470;2023-02-02T03:11:38;102381.94;;;6.00;39.78
39954;BME280;25631;51.516;-0.470;2023-02-02T03:14:29;102383.95;;;6.25;39.69
39954;BME280;25631;51.516;-0.470;2023-02-02T03:17:10;102388.59;;;6.41;39.62
39954;BME280;25631;51.516;-0.470;2023-02-02T03:19:51;102387.59;;;6.29;39.62
39954;BME280;25631;51.516;-0.470;2023-02-02T03:22:28;102384.54;;;6.26;39.57
39954;BME280;25631;51.516;-0.470;2023-02-02T03:25:07;102385.13;;;6.29;39.59
39954;BME280;25631;51.516;-0.470;2023-02-02T03:27:44;102387.94;;;6.21;39.64
39954;BME280;25631;51.516;-0.470;2023-02-02T03:30:23;102390.61;;;6.32;39.59
39954;BME280;25631;51.516;-0.470;2023-02-02T03:33:00;102394.23;;;6.20;39.56
39954;BME280;25631;51.516;-0.470;2023-02-02T03:35:36;102400.13;;;6.34;39.55
39954;BME280;25631;51.516;-0.470;2023-02-02T03:38:22;102404.55;;;6.05;39.65
39954;BME280;25631;51.516;-0.470;2023-02-02T03:40:59;102401.22;;;6.03;39.65
39954;BME280;25631;51.516;-0.470;2023-02-02T03:43:35;102403.36;;;6.09;39.67
39954;BME280;25631;51.516;-0.470;2023-02-02T03:46:12;102399.24;;;5.94;39.81
39954;BME280;25631;51.516;-0.470;2023-02-02T03:48:48;102397.55;;;6.00;39.83
39954;BME280;25631;51.516;-0.470;2023-02-02T03:51:25;102392.61;;;5.82;39.88
39954;BME280;25631;51.516;-0.470;2023-02-02T03:54:01;102384.88;;;5.81;39.85
39954;BME280;25631;51.516;-0.470;2023-02-02T03:56:38;102377.90;;;5.86;39.90
39954;BME280;25631;51.516;-0.470;2023-02-02T03:59:14;102379.33;;;5.85;40.04
39954;BME280;25631;51.516;-0.470;2023-02-02T04:01:51;102388.03;;;5.59;40.14
39954;BME280;25631;51.516;-0.470;2023-02-02T04:04:27;102397.80;;;5.57;40.16
39954;BME280;25631;51.516;-0.470;2023-02-02T04:07:04;102404.16;;;5.59;40.16
39954;BME280;25631;51.516;-0.470;2023-02-02T04:09:41;102401.27;;;5.51;40.27
39954;BME280;25631;51.516;-0.470;2023-02-02T04:12:17;102402.81;;;5.47;40.34
39954;BME280;25631;51.516;-0.470;2023-02-02T04:14:54;102402.49;;;5.53;40.60
39954;BME280;25631;51.516;-0.470;2023-02-02T04:17:31;102401.72;;;5.46;40.49
39954;BME280;25631;51.516;-0.470;2023-02-02T04:20:09;102402.44;;;5.42;40.63
39954;BME280;25631;51.516;-0.470;2023-02-02T04:22:46;102406.86;;;5.51;40.62
39954;BME280;25631;51.516;-0.470;2023-02-02T04:25:22;102404.94;;;5.63;40.73
39954;BME280;25631;51.516;-0.470;2023-02-02T04:27:59;102401.29;;;5.50;40.80
39954;BME280;25631;51.516;-0.470;2023-02-02T04:30:35;102397.32;;;5.57;40.79
39954;BME280;25631;51.516;-0.470;2023-02-02T04:33:12;102397.54;;;5.75;40.71
39954;BME280;25631;51.516;-0.470;2023-02-02T04:35:50;102396.38;;;5.61;40.72
39954;BME280;25631;51.516;-0.470;2023-02-02T04:38:27;102391.08;;;5.76;40.63
39954;BME280;25631;51.516;-0.470;2023-02-02T04:41:06;102388.57;;;5.52;40.71
39954;BME280;25631;51.516;-0.470;2023-02-02T04:43:44;102391.71;;;5.63;40.81
39954;BME280;25631;51.516;-0.470;2023-02-02T04:46:20;102392.92;;;5.45;40.80
39954;BME280;25631;51.516;-0.470;2023-02-02T04:48:57;102396.10;;;5.25;41.04
39954;BME280;25631;51.516;-0.470;2023-02-02T04:51:34;102396.27;;;5.27;41.00
39954;BME280;25631;51.516;-0.470;2023-02-02T04:54:11;102389.12;;;5.48;40.94
39954;BME280;25631;51.516;-0.470;2023-02-02T04:56:47;102383.36;;;5.60;40.92
39954;BME280;25631;51.516;-0.470;2023-02-02T04:59:26;102385.77;;;5.40;40.89
39954;BME280;25631;51.516;-0.470;2023-02-02T05:02:03;102385.09;;;5.32;40.85
39954;BME280;25631;51.516;-0.470;2023-02-02T05:04:39;102390.51;;;5.41;40.71
39954;BME280;25631;51.516;-0.470;2023-02-02T05:07:16;102390.56;;;5.65;40.66
39954;BME280;25631;51.516;-0.470;2023-02-02T05:09:53;102389.26;;;5.42;40.63
39954;BME280;25631;51.516;-0.470;2023-02-02T05:12:30;102392.21;;;5.45;40.57
39954;BME280;25631;51.516;-0.470;2023-02-02T05:15:08;102394.63;;;5.51;40.60
39954;BME280;25631;51.516;-0.470;2023-02-02T05:17:44;102389.18;;;5.44;40.71
39954;BME280;25631;51.516;-0.470;2023-02-02T05:20:21;102387.44;;;5.47;40.63
39954;BME280;25631;51.516;-0.470;2023-02-02T05:22:58;102384.12;;;5.53;40.76
39954;BME280;25631;51.516;-0.470;2023-02-02T05:25:34;102385.37;;;5.30;40.65
39954;BME280;25631;51.516;-0.470;2023-02-02T05:28:11;102385.19;;;5.45;40.69
39954;BME280;25631;51.516;-0.470;2023-02-02T05:30:47;102381.63;;;5.43;40.75
39954;BME280;25631;51.516;-0.470;2023-02-02T05:33:24;102389.55;;;5.57;40.56
39954;BME280;25631;51.516;-0.470;2023-02-02T05:36:00;102389.46;;;5.55;40.48
39954;BME280;25631;51.516;-0.470;2023-02-02T05:38:37;102391.22;;;5.43;40.38
39954;BME280;25631;51.516;-0.470;2023-02-02T05:41:13;102392.31;;;5.70;40.35
39954;BME280;25631;51.516;-0.470;2023-02-02T05:43:50;102396.17;;;5.43;40.31
39954;BME280;25631;51.516;-0.470;2023-02-02T05:46:27;102404.99;;;5.51;40.27
39954;BME280;25631;51.516;-0.470;2023-02-02T05:49:03;102410.53;;;5.41;40.27
39954;BME280;25631;51.516;-0.470;2023-02-02T05:51:43;102415.51;;;5.38;40.26
39954;BME280;25631;51.516;-0.470;2023-02-02T05:54:20;102417.48;;;5.16;40.40
39954;BME280;25631;51.516;-0.470;2023-02-02T05:56:56;102417.17;;;4.99;40.46
39954;BME280;25631;51.516;-0.470;2023-02-02T05:59:33;102416.95;;;5.17;40.47
39954;BME280;25631;51.516;-0.470;2023-02-02T06:02:10;102411.25;;;5.29;40.44
39954;BME280;25631;51.516;-0.470;2023-02-02T06:04:46;102401.23;;;5.49;40.41
39954;BME280;25631;51.516;-0.470;2023-02-02T06:07:23;102402.06;;;5.38;40.42
39954;BME280;25631;51.516;-0.470;2023-02-02T06:09:59;102402.82;;;5.14;40.35
39954;BME280;25631;51.516;-0.470;2023-02-02T06:12:36;102403.22;;;5.26;40.35
39954;BME280;25631;51.516;-0.470;2023-02-02T06:15:13;102401.98;;;5.05;40.52
39954;BME280;25631;51.516;-0.470;2023-02-02T06:17:49;102399.22;;;5.10;40.57
39954;BME280;25631;51.516;-0.470;2023-02-02T06:20:26;102400.19;;;4.96;40.59
39954;BME280;25631;51.516;-0.470;2023-02-02T06:23:03;102413.09;;;5.20;40.47
39954;BME280;25631;51.516;-0.470;2023-02-02T06:25:40;102417.51;;;5.08;40.41
39954;BME280;25631;51.516;-0.470;2023-02-02T06:28:16;102422.49;;;5.48;40.27
39954;BME280;25631;51.516;-0.470;2023-02-02T06:31:08;102420.81;;;5.16;40.41
39954;BME280;25631;51.516;-0.470;2023-02-02T06:33:45;102419.42;;;5.09;40.53
39954;BME280;25631;51.516;-0.470;2023-02-02T06:36:23;102424.63;;;4.90;40.78
39954;BME280;25631;51.516;-0.470;2023-02-02T06:39:00;102424.99;;;4.59;40.69
39954;BME280;25631;51.516;-0.470;2023-02-02T06:41:42;102421.75;;;5.29;40.61
39954;BME280;25631;51.516;-0.470;2023-02-02T06:44:19;102428.85;;;5.38;40.66
39954;BME280;25631;51.516;-0.470;2023-02-02T06:46:55;102432.95;;;5.43;40.63
39954;BME280;25631;51.516;-0.470;2023-02-02T06:49:32;102439.13;;;5.08;40.69
39954;BME280;25631;51.516;-0.470;2023-02-02T06:52:09;102438.90;;;5.21;40.82
39954;BME280;25631;51.516;-0.470;2023-02-02T06:54:50;102444.67;;;5.51;40.72
39954;BME280;25631;51.516;-0.470;2023-02-02T06:57:32;102446.28;;;5.38;40.77
39954;BME280;25631;51.516;-0.470;2023-02-02T07:00:14;102447.26;;;5.04;40.82
39954;BME280;25631;51.516;-0.470;2023-02-02T07:02:51;102444.72;;;5.27;40.72
39954;BME280;25631;51.516;-0.470;2023-02-02T07:05:27;102443.82;;;5.22;40.73
39954;BME280;25631;51.516;-0.470;2023-02-02T07:08:04;102443.45;;;5.70;40.69
39954;BME280;25631;51.516;-0.470;2023-02-02T07:10:41;102441.24;;;5.46;40.74
39954;BME280;25631;51.516;-0.470;2023-02-02T07:13:22;102439.94;;;5.27;40.78
39954;BME280;25631;51.516;-0.470;2023-02-02T07:15:59;102433.90;;;5.21;40.93
39954;BME280;25631;51.516;-0.470;2023-02-02T07:18:36;102431.09;;;5.26;41.17
39954;BME280;25631;51.516;-0.470;2023-02-02T07:21:16;102434.78;;;5.38;41.16
39954;BME280;25631;51.516;-0.470;2023-02-02T07:23:58;102434.40;;;5.41;41.17
39954;BME280;25631;51.516;-0.470;2023-02-02T07:26:35;102434.96;;;5.25;41.31
39954;BME280;25631;51.516;-0.470;2023-02-02T07:29:12;102433.03;;;5.23;41.39
39954;BME280;25631;51.516;-0.470;2023-02-02T07:31:49;102432.37;;;5.14;41.69
39954;BME280;25631;51.516;-0.470;2023-02-02T07:34:32;102432.63;;;5.09;41.73
39954;BME280;25631;51.516;-0.470;2023-02-02T07:37:12;102435.72;;;5.33;41.98
39954;BME280;25631;51.516;-0.470;2023-02-02T07:39:49;102432.85;;;5.27;42.33
39954;BME280;25631;51.516;-0.470;2023-02-02T07:42:26;102438.59;;;4.90;42.57
39954;BME280;25631;51.516;-0.470;2023-02-02T07:45:03;102436.64;;;4.48;43.18
39954;BME280;25631;51.516;-0.470;2023-02-02T07:47:44;102434.82;;;4.98;43.09
39954;BME280;25631;51.516;-0.470;2023-02-02T07:50:21;102434.27;;;5.08;42.98
39954;BME280;25631;51.516;-0.470;2023-02-02T07:52:59;102437.76;;;5.05;43.20
39954;BME280;25631;51.516;-0.470;2023-02-02T07:55:35;102442.37;;;4.55;43.51
39954;BME280;25631;51.516;-0.470;2023-02-02T07:58:12;102448.42;;;5.03;43.62
39954;BME280;25631;51.516;-0.470;2023-02-02T08:00:48;102445.47;;;5.14;43.46
39954;BME280;25631;51.516;-0.470;2023-02-02T08:03:30;102450.05;;;4.95;43.22
39954;BME280;25631;51.516;-0.470;2023-02-02T08:06:12;102457.19;;;5.19;43.26
39954;BME280;25631;51.516;-0.470;2023-02-02T08:08:50;102461.89;;;5.03;43.21
39954;BME280;25631;51.516;-0.470;2023-02-02T08:11:27;102471.32;;;5.26;43.47
39954;BME280;25631;51.516;-0.470;2023-02-02T08:14:05;102476.22;;;5.44;43.27
39954;BME280;25631;51.516;-0.470;2023-02-02T08:16:42;102479.62;;;5.11;43.46
39954;BME280;25631;51.516;-0.470;2023-02-02T08:19:19;102488.20;;;5.35;43.32
39954;BME280;25631;51.516;-0.470;2023-02-02T08:21:55;102491.95;;;5.06;43.46
39954;BME280;25631;51.516;-0.470;2023-02-02T08:24:32;102494.81;;;4.97;43.64
39954;BME280;25631;51.516;-0.470;2023-02-02T08:27:09;102501.43;;;5.15;43.75
39954;BME280;25631;51.516;-0.470;2023-02-02T08:29:46;102508.40;;;5.63;43.88
39954;BME280;25631;51.516;-0.470;2023-02-02T08:32:22;102515.29;;;5.13;44.13
39954;BME280;25631;51.516;-0.470;2023-02-02T08:34:59;102516.30;;;5.04;44.28
39954;BME280;25631;51.516;-0.470;2023-02-02T08:37:35;102507.86;;;5.27;44.07
39954;BME280;25631;51.516;-0.470;2023-02-02T08:40:12;102505.07;;;5.12;44.54
39954;BME280;25631;51.516;-0.470;2023-02-02T08:42:57;102498.80;;;5.09;44.42
39954;BME280;25631;51.516;-0.470;2023-02-02T08:45:34;102497.71;;;5.25;44.36
39954;BME280;25631;51.516;-0.470;2023-02-02T08:48:10;102496.09;;;5.59;44.42
39954;BME280;25631;51.516;-0.470;2023-02-02T08:50:52;102493.89;;;5.31;44.83
39954;BME280;25631;51.516;-0.470;2023-02-02T08:53:29;102493.47;;;5.55;44.77
39954;BME280;25631;51.516;-0.470;2023-02-02T08:56:09;102489.67;;;5.18;44.88
39954;BME280;25631;51.516;-0.470;2023-02-02T08:58:49;102491.17;;;4.96;45.15
39954;BME280;25631;51.516;-0.470;2023-02-02T09:01:27;102498.63;;;5.42;44.96
39954;BME280;25631;51.516;-0.470;2023-02-02T09:04:06;102500.36;;;5.10;44.84
39954;BME280;25631;51.516;-0.470;2023-02-02T09:06:43;102503.24;;;5.44;44.75
39954;BME280;25631;51.516;-0.470;2023-02-02T09:09:20;102509.20;;;5.41;44.89
39954;BME280;25631;51.516;-0.470;2023-02-02T09:11:58;102505.52;;;5.49;45.05
39954;BME280;25631;51.516;-0.470;2023-02-02T09:14:35;102505.65;;;5.09;45.63
39954;BME280;25631;51.516;-0.470;2023-02-02T09:17:12;102507.76;;;5.29;45.70
39954;BME280;25631;51.516;-0.470;2023-02-02T09:19:48;102506.63;;;5.20;45.52
39954;BME280;25631;51.516;-0.470;2023-02-02T09:22:25;102509.63;;;5.16;46.08
39954;BME280;25631;51.516;-0.470;2023-02-02T09:25:02;102506.15;;;5.34;45.94
39954;BME280;25631;51.516;-0.470;2023-02-02T09:27:38;102507.07;;;5.28;46.07
39954;BME280;25631;51.516;-0.470;2023-02-02T09:30:16;102505.83;;;5.23;46.38
39954;BME280;25631;51.516;-0.470;2023-02-02T09:32:58;102507.17;;;5.58;46.23
39954;BME280;25631;51.516;-0.470;2023-02-02T09:35:35;102512.08;;;5.67;46.60
39954;BME280;25631;51.516;-0.470;2023-02-02T09:38:11;102516.90;;;5.38;46.76
39954;BME280;25631;51.516;-0.470;2023-02-02T09:40:47;102523.63;;;5.70;46.51
39954;BME280;25631;51.516;-0.470;2023-02-02T09:43:36;102522.69;;;5.96;46.31
39954;BME280;25631;51.516;-0.470;2023-02-02T09:46:23;102524.89;;;6.13;46.27
39954;BME280;25631;51.516;-0.470;2023-02-02T09:49:05;102528.80;;;6.06;46.23
39954;BME280;25631;51.516;-0.470;2023-02-02T09:51:48;102528.88;;;6.20;46.18
39954;BME280;25631;51.516;-0.470;2023-02-02T09:54:28;102534.79;;;6.23;46.18
39954;BME280;25631;51.516;-0.470;2023-02-02T09:57:14;102534.68;;;6.57;46.08
39954;BME280;25631;51.516;-0.470;2023-02-02T09:59:54;102535.22;;;6.62;45.79
39954;BME280;25631;51.516;-0.470;2023-02-02T10:02:35;102534.08;;;6.52;45.95
39954;BME280;25631;51.516;-0.470;2023-02-02T10:05:18;102533.15;;;6.45;45.93
39954;BME280;25631;51.516;-0.470;2023-02-02T10:08:00;102534.13;;;6.46;45.89
39954;BME280;25631;51.516;-0.470;2023-02-02T10:10:40;102531.04;;;6.68;45.72
39954;BME280;25631;51.516;-0.470;2023-02-02T10:13:21;102536.42;;;6.89;45.67
39954;BME280;25631;51.516;-0.470;2023-02-02T10:16:05;102540.75;;;6.72;45.42
39954;BME280;25631;51.516;-0.470;2023-02-02T10:18:47;102543.33;;;7.11;45.05
39954;BME280;25631;51.516;-0.470;2023-02-02T10:21:28;102544.93;;;6.94;44.99
39954;BME280;25631;51.516;-0.470;2023-02-02T10:24:16;102545.11;;;7.03;45.28
39954;BME280;25631;51.516;-0.470;2023-02-02T10:26:54;102546.86;;;6.91;45.25
39954;BME280;25631;51.516;-0.470;2023-02-02T10:29:37;102552.72;;;6.94;45.16
39954;BME280;25631;51.516;-0.470;2023-02-02T10:32:22;102555.01;;;7.16;45.01
39954;BME280;25631;51.516;-0.470;2023-02-02T10:35:18;102558.90;;;6.87;45.16
39954;BME280;25631;51.516;-0.470;2023-02-02T10:38:02;102562.82;;;6.74;45.07
39954;BME280;25631;51.516;-0.470;2023-02-02T10:40:50;102566.70;;;6.90;45.26
39954;BME280;25631;51.516;-0.470;2023-02-02T10:43:50;102567.74;;;7.02;45.47
39954;BME280;25631;51.516;-0.470;2023-02-02T10:46:33;102568.18;;;6.76;45.35
39954;BME280;25631;51.516;-0.470;2023-02-02T10:49:18;102567.23;;;6.96;45.37
39954;BME280;25631;51.516;-0.470;2023-02-02T10:52:00;102570.24;;;7.08;45.17
39954;BME280;25631;51.516;-0.470;2023-02-02T10:54:46;102566.57;;;7.06;45.26
39954;BME280;25631;51.516;-0.470;2023-02-02T10:57:45;102561.85;;;7.02;45.26
39954;BME280;25631;51.516;-0.470;2023-02-02T11:00:27;102560.28;;;6.38;45.67
39954;BME280;25631;51.516;-0.470;2023-02-02T11:03:08;102550.37;;;7.01;45.50
39954;BME280;25631;51.516;-0.470;2023-02-02T11:05:46;102546.30;;;7.39;45.46
39954;BME280;25631;51.516;-0.470;2023-02-02T11:08:28;102548.65;;;6.99;45.63
39954;BME280;25631;51.516;-0.470;2023-02-02T11:11:11;102548.20;;;7.40;45.47
39954;BME280;25631;51.516;-0.470;2023-02-02T11:13:52;102545.70;;;7.10;45.29
39954;BME280;25631;51.516;-0.470;2023-02-02T11:16:31;102547.46;;;6.89;45.38
39954;BME280;25631;51.516;-0.470;2023-02-02T11:19:22;102541.45;;;7.53;45.27
39954;BME280;25631;51.516;-0.470;2023-02-02T11:22:03;102536.87;;;7.57;44.83
39954;BME280;25631;51.516;-0.470;2023-02-02T11:24:45;102529.43;;;7.50;44.59
39954;BME280;25631;51.516;-0.470;2023-02-02T11:27:24;102529.39;;;7.51;44.41
39954;BME280;25631;51.516;-0.470;2023-02-02T11:30:11;102528.05;;;7.41;44.53
39954;BME280;25631;51.516;-0.470;2023-02-02T11:32:56;102518.65;;;8.00;44.12
39954;BME280;25631;51.516;-0.470;2023-02-02T11:35:32;102520.25;;;7.64;44.04
39954;BME280;25631;51.516;-0.470;2023-02-02T11:38:13;102521.38;;;7.63;44.07
39954;BME280;25631;51.516;-0.470;2023-02-02T11:40:56;102520.73;;;7.52;43.71
39954;BME280;25631;51.516;-0.470;2023-02-02T11:43:36;102526.14;;;7.95;43.41
39954;BME280;25631;51.516;-0.470;2023-02-02T11:46:18;102524.67;;;8.07;43.33
39954;BME280;25631;51.516;-0.470;2023-02-02T11:48:58;102524.80;;;8.20;43.22
39954;BME280;25631;51.516;-0.470;2023-02-02T11:51:36;102521.81;;;8.31;43.07
39954;BME280;25631;51.516;-0.470;2023-02-02T11:54:17;102515.90;;;8.62;42.84
39954;BME280;25631;51.516;-0.470;2023-02-02T11:56:59;102514.57;;;8.37;42.93
39954;BME280;25631;51.516;-0.470;2023-02-02T11:59:38;102513.07;;;8.39;42.83
39954;BME280;25631;51.516;-0.470;2023-02-02T12:02:25;102509.10;;;8.56;42.64
39954;BME280;25631;51.516;-0.470;2023-02-02T12:05:36;102504.04;;;8.67;42.45
39954;BME280;25631;51.516;-0.470;2023-02-02T12:08:12;102505.38;;;8.75;42.25
39954;BME280;25631;51.516;-0.470;2023-02-02T12:10:56;102497.53;;;8.74;42.23
39954;BME280;25631;51.516;-0.470;2023-02-02T12:13:50;102494.84;;;8.68;42.03
39954;BME280;25631;51.516;-0.470;2023-02-02T12:16:42;102496.88;;;8.71;42.05
39954;BME280;25631;51.516;-0.470;2023-02-02T12:19:41;102489.58;;;8.73;42.24
39954;BME280;25631;51.516;-0.470;2023-02-02T12:22:30;102487.52;;;8.43;41.95
39954;BME280;25631;51.516;-0.470;2023-02-02T12:25:34;102483.38;;;8.72;42.19
39954;BME280;25631;51.516;-0.470;2023-02-02T12:28:19;102484.05;;;8.84;42.16
39954;BME280;25631;51.516;-0.470;2023-02-02T12:31:06;102480.30;;;8.81;42.24
39954;BME280;25631;51.516;-0.470;2023-02-02T12:33:53;102480.88;;;8.59;42.39
39954;BME280;25631;51.516;-0.470;2023-02-02T12:36:42;102480.72;;;8.52;42.53
39954;BME280;25631;51.516;-0.470;2023-02-02T12:39:31;102476.44;;;8.41;42.63
39954;BME280;25631;51.516;-0.470;2023-02-02T12:42:20;102481.12;;;8.55;42.57
39954;BME280;25631;51.516;-0.470;2023-02-02T12:45:13;102479.62;;;8.27;42.98
39954;BME280;25631;51.516;-0.470;2023-02-02T12:48:04;102472.67;;;8.44;42.79
39954;BME280;25631;51.516;-0.470;2023-02-02T12:50:57;102470.76;;;8.40;42.77
39954;BME280;25631;51.516;-0.470;2023-02-02T12:53:47;102469.44;;;8.58;42.74
39954;BME280;25631;51.516;-0.470;2023-02-02T12:56:31;102469.10;;;8.67;42.35
39954;BME280;25631;51.516;-0.470;2023-02-02T12:59:18;102469.32;;;9.10;42.21
39954;BME280;25631;51.516;-0.470;2023-02-02T13:02:03;102469.91;;;8.74;41.92
39954;BME280;25631;51.516;-0.470;2023-02-02T13:04:56;102470.87;;;8.07;42.21
39954;BME280;25631;51.516;-0.470;2023-02-02T13:07:39;102462.41;;;8.92;41.85
39954;BME280;25631;51.516;-0.470;2023-02-02T13:10:23;102457.21;;;9.17;41.86
39954;BME280;25631;51.516;-0.470;2023-02-02T13:13:08;102458.24;;;8.81;41.57
39954;BME280;25631;51.516;-0.470;2023-02-02T13:15:49;102458.45;;;9.20;41.24
39954;BME280;25631;51.516;-0.470;2023-02-02T13:18:31;102455.18;;;9.18;41.04
39954;BME280;25631;51.516;-0.470;2023-02-02T13:21:12;102454.74;;;9.12;40.96
39954;BME280;25631;51.516;-0.470;2023-02-02T13:23:52;102448.54;;;8.78;41.33
39954;BME280;25631;51.516;-0.470;2023-02-02T13:26:33;102456.77;;;8.61;41.55
39954;BME280;25631;51.516;-0.470;2023-02-02T13:29:21;102454.03;;;9.03;41.64
39954;BME280;25631;51.516;-0.470;2023-02-02T13:32:04;102455.23;;;9.31;41.68
39954;BME280;25631;51.516;-0.470;2023-02-02T13:34:46;102451.18;;;9.46;41.67
39954;BME280;25631;51.516;-0.470;2023-02-02T13:37:29;102453.32;;;9.37;41.59
39954;BME280;25631;51.516;-0.470;2023-02-02T13:40:25;102460.30;;;9.16;41.71
39954;BME280;25631;51.516;-0.470;2023-02-02T13:43:14;102453.72;;;9.15;41.49
39954;BME280;25631;51.516;-0.470;2023-02-02T13:46:03;102458.56;;;9.13;41.79
39954;BME280;25631;51.516;-0.470;2023-02-02T13:48:51;102455.76;;;8.95;42.56
39954;BME280;25631;51.516;-0.470;2023-02-02T13:52:45;102456.75;;;9.02;42.54
39954;BME280;25631;51.516;-0.470;2023-02-02T13:55:54;102457.48;;;9.05;42.39
39954;BME280;25631;51.516;-0.470;2023-02-02T13:59:02;102457.67;;;8.99;42.53
39954;BME280;25631;51.516;-0.470;2023-02-02T14:01:46;102466.19;;;8.62;42.53
39954;BME280;25631;51.516;-0.470;2023-02-02T14:04:27;102450.71;;;8.82;42.41